sensor_id;sensor_type;location;lat;lon;timestamp;temperature;humidity
6520;DHT22;3293;51.690;5.982;2023-04-15T00:04:55;8.30;99.90
6520;DHT22;3293;51.690;5.982;2023-04-15T00:09:55;8.30;99.90
6520;DHT22;3293;51.690;5.982;2023-04-15T00:14:56;8.20;99.90
6520;DHT22;3293;51.690;5.982;2023-04-15T00:19:57;8.10;99.90
6520;DHT22;3293;51.690;5.982;2023-04-15T00:24:58;8.10;99.90
6520;DHT22;3293;51.690;5.982;2023-04-15T00:29:58;8.00;99.90
6520;DHT22;3293;51.690;5.982;2023-04-15T00:34:58;8.00;99.90
6520;DHT22;3293;51.690;5.982;2023-04-15T00:39:58;8.00;99.90
6520;DHT22;3293;51.690;5.982;2023-04-15T00:44:58;8.00;99.90
6520;DHT22;3293;51.690;5.982;2023-04-15T00:49:58;8.00;99.90
6520;DHT22;3293;51.690;5.982;2023-04-15T00:54:58;7.90;99.90
6520;DHT22;3293;51.690;5.982;2023-04-15T00:59:59;7.90;99.90
6520;DHT22;3293;51.690;5.982;2023-04-15T01:04:59;7.90;99.90
6520;DHT22;3293;51.690;5.982;2023-04-15T01:09:59;7.70;99.90
6520;DHT22;3293;51.690;5.982;2023-04-15T01:15:00;7.70;99.90
6520;DHT22;3293;51.690;5.982;2023-04-15T01:20:00;7.60;99.90
6520;DHT22;3293;51.690;5.982;2023-04-15T01:25:09;7.60;99.90
6520;DHT22;3293;51.690;5.982;2023-04-15T01:30:09;7.40;99.90
6520;DHT22;3293;51.690;5.982;2023-04-15T01:35:10;7.30;99.90
6520;DHT22;3293;51.690;5.982;2023-04-15T01:40:10;7.40;99.90
6520;DHT22;3293;51.690;5.982;2023-04-15T01:45:10;7.30;99.90
6520;DHT22;3293;51.690;5.982;2023-04-15T01:50:11;7.20;99.90
6520;DHT22;3293;51.690;5.982;2023-04-15T01:55:12;7.10;99.90
6520;DHT22;3293;51.690;5.982;2023-04-15T02:00:12;7.00;99.90
6520;DHT22;3293;51.690;5.982;2023-04-15T02:05:12;7.00;99.90
6520;DHT22;3293;51.690;5.982;2023-04-15T02:10:13;6.80;99.90
6520;DHT22;3293;51.690;5.982;2023-04-15T02:15:13;6.80;99.90
6520;DHT22;3293;51.690;5.982;2023-04-15T02:20:14;6.80;99.90
6520;DHT22;3293;51.690;5.982;2023-04-15T02:25:14;6.70;99.90
6520;DHT22;3293;51.690;5.982;2023-04-15T02:30:15;6.60;99.90
6520;DHT22;3293;51.690;5.982;2023-04-15T02:35:16;6.60;99.90
6520;DHT22;3293;51.690;5.982;2023-04-15T02:40:18;6.70;99.90
6520;DHT22;3293;51.690;5.982;2023-04-15T02:45:19;6.80;99.90
6520;DHT22;3293;51.690;5.982;2023-04-15T02:50:22;6.70;99.90
6520;DHT22;3293;51.690;5.982;2023-04-15T02:55:22;6.60;99.90
6520;DHT22;3293;51.690;5.982;2023-04-15T03:00:22;6.70;99.90
6520;DHT22;3293;51.690;5.982;2023-04-15T03:05:24;6.70;99.90
6520;DHT22;3293;51.690;5.982;2023-04-15T03:10:24;6.70;99.90
6520;DHT22;3293;51.690;5.982;2023-04-15T03:15:24;6.70;99.90
6520;DHT22;3293;51.690;5.982;2023-04-15T03:20:24;6.70;99.90
6520;DHT22;3293;51.690;5.982;2023-04-15T03:25:24;6.70;99.90
6520;DHT22;3293;51.690;5.982;2023-04-15T03:30:24;6.70;99.90
6520;DHT22;3293;51.690;5.982;2023-04-15T03:35:24;6.70;99.90
6520;DHT22;3293;51.690;5.982;2023-04-15T03:40:24;6.60;99.90
6520;DHT22;3293;51.690;5.982;2023-04-15T03:45:24;6.50;99.90
6520;DHT22;3293;51.690;5.982;2023-04-15T03:50:24;6.40;99.90
6520;DHT22;3293;51.690;5.982;2023-04-15T03:55:24;6.30;99.90
6520;DHT22;3293;51.690;5.982;2023-04-15T04:00:24;6.30;99.90
6520;DHT22;3293;51.690;5.982;2023-04-15T04:05:24;6.20;99.90
6520;DHT22;3293;51.690;5.982;2023-04-15T04:10:25;6.20;99.90
6520;DHT22;3293;51.690;5.982;2023-04-15T04:15:25;6.20;99.90
6520;DHT22;3293;51.690;5.982;2023-04-15T04:20:25;6.10;99.90
6520;DHT22;3293;51.690;5.982;2023-04-15T04:25:25;6.00;99.90
6520;DHT22;3293;51.690;5.982;2023-04-15T04:30:25;6.00;99.90
6520;DHT22;3293;51.690;5.982;2023-04-15T04:35:25;6.00;99.90
6520;DHT22;3293;51.690;5.982;2023-04-15T04:40:26;6.00;99.90
6520;DHT22;3293;51.690;5.982;2023-04-15T04:45:26;6.00;99.90
6520;DHT22;3293;51.690;5.982;2023-04-15T04:50:26;6.00;99.90
6520;DHT22;3293;51.690;5.982;2023-04-15T04:55:26;6.10;99.90
6520;DHT22;3293;51.690;5.982;2023-04-15T05:00:26;6.10;99.90
6520;DHT22;3293;51.690;5.982;2023-04-15T05:05:26;6.10;99.90
6520;DHT22;3293;51.690;5.982;2023-04-15T05:10:26;6.10;99.90
6520;DHT22;3293;51.690;5.982;2023-04-15T05:15:26;6.30;99.90
6520;DHT22;3293;51.690;5.982;2023-04-15T05:20:26;6.30;99.90
6520;DHT22;3293;51.690;5.982;2023-04-15T05:25:26;6.30;99.90
6520;DHT22;3293;51.690;5.982;2023-04-15T05:30:26;6.30;99.90
6520;DHT22;3293;51.690;5.982;2023-04-15T05:35:26;6.50;99.90
6520;DHT22;3293;51.690;5.982;2023-04-15T05:40:26;6.70;99.90
6520;DHT22;3293;51.690;5.982;2023-04-15T05:45:26;6.90;99.90
6520;DHT22;3293;51.690;5.982;2023-04-15T05:50:26;7.30;99.90
6520;DHT22;3293;51.690;5.982;2023-04-15T05:55:26;7.80;99.90
6520;DHT22;3293;51.690;5.982;2023-04-15T06:00:26;8.30;99.90
6520;DHT22;3293;51.690;5.982;2023-04-15T06:05:26;8.90;99.90
6520;DHT22;3293;51.690;5.982;2023-04-15T06:10:26;9.90;99.90
6520;DHT22;3293;51.690;5.982;2023-04-15T06:15:26;10.30;99.90
6520;DHT22;3293;51.690;5.982;2023-04-15T06:20:26;10.60;99.90
6520;DHT22;3293;51.690;5.982;2023-04-15T06:25:26;10.80;99.90
6520;DHT22;3293;51.690;5.982;2023-04-15T06:30:26;10.60;99.90
6520;DHT22;3293;51.690;5.982;2023-04-15T06:35:26;10.30;99.90
6520;DHT22;3293;51.690;5.982;2023-04-15T06:40:26;10.20;99.90
6520;DHT22;3293;51.690;5.982;2023-04-15T06:45:26;9.90;99.90
6520;DHT22;3293;51.690;5.982;2023-04-15T06:50:27;10.00;99.90
6520;DHT22;3293;51.690;5.982;2023-04-15T06:55:27;9.80;99.90
6520;DHT22;3293;51.690;5.982;2023-04-15T07:00:27;9.70;99.90
6520;DHT22;3293;51.690;5.982;2023-04-15T07:05:27;9.80;99.90
6520;DHT22;3293;51.690;5.982;2023-04-15T07:10:27;9.90;99.90
6520;DHT22;3293;51.690;5.982;2023-04-15T07:15:27;9.90;99.90
6520;DHT22;3293;51.690;5.982;2023-04-15T07:20:27;10.00;99.90
6520;DHT22;3293;51.690;5.982;2023-04-15T07:25:27;10.10;99.90
6520;DHT22;3293;51.690;5.982;2023-04-15T07:30:27;10.30;99.90
6520;DHT22;3293;51.690;5.982;2023-04-15T07:35:28;10.50;99.90
6520;DHT22;3293;51.690;5.982;2023-04-15T07:40:28;10.70;99.90
6520;DHT22;3293;51.690;5.982;2023-04-15T07:45:29;11.00;99.90
6520;DHT22;3293;51.690;5.982;2023-04-15T07:50:29;10.90;99.90
6520;DHT22;3293;51.690;5.982;2023-04-15T07:55:29;11.10;99.90
6520;DHT22;3293;51.690;5.982;2023-04-15T08:00:29;11.40;99.90
6520;DHT22;3293;51.690;5.982;2023-04-15T08:05:29;11.60;99.90
6520;DHT22;3293;51.690;5.982;2023-04-15T08:10:29;12.00;99.90
6520;DHT22;3293;51.690;5.982;2023-04-15T08:15:30;12.00;99.90
6520;DHT22;3293;51.690;5.982;2023-04-15T08:20:31;12.10;99.90
6520;DHT22;3293;51.690;5.982;2023-04-15T08:25:32;12.40;99.90
6520;DHT22;3293;51.690;5.982;2023-04-15T08:30:32;12.60;99.90
6520;DHT22;3293;51.690;5.982;2023-04-15T08:35:32;13.20;99.90
6520;DHT22;3293;51.690;5.982;2023-04-15T08:40:40;13.40;99.90
6520;DHT22;3293;51.690;5.982;2023-04-15T08:45:41;13.50;97.90
6520;DHT22;3293;51.690;5.982;2023-04-15T08:50:43;12.90;99.40
6520;DHT22;3293;51.690;5.982;2023-04-15T08:55:45;12.80;99.40
6520;DHT22;3293;51.690;5.982;2023-04-15T09:00:45;13.00;99.20
6520;DHT22;3293;51.690;5.982;2023-04-15T09:05:47;12.90;98.40
6520;DHT22;3293;51.690;5.982;2023-04-15T09:10:47;12.30;99.70
6520;DHT22;3293;51.690;5.982;2023-04-15T09:15:47;12.30;99.90
6520;DHT22;3293;51.690;5.982;2023-04-15T09:20:47;12.40;99.90
6520;DHT22;3293;51.690;5.982;2023-04-15T09:25:52;12.50;99.90
6520;DHT22;3293;51.690;5.982;2023-04-15T09:30:55;13.00;99.90
6520;DHT22;3293;51.690;5.982;2023-04-15T09:36:01;12.80;98.80
6520;DHT22;3293;51.690;5.982;2023-04-15T09:41:02;12.80;99.90
6520;DHT22;3293;51.690;5.982;2023-04-15T09:46:02;13.20;99.90
6520;DHT22;3293;51.690;5.982;2023-04-15T09:51:02;13.40;98.60
6520;DHT22;3293;51.690;5.982;2023-04-15T09:56:03;13.30;99.60
6520;DHT22;3293;51.690;5.982;2023-04-15T10:01:04;13.40;99.80
6520;DHT22;3293;51.690;5.982;2023-04-15T10:06:05;13.20;98.20
6520;DHT22;3293;51.690;5.982;2023-04-15T10:11:05;13.10;98.60
6520;DHT22;3293;51.690;5.982;2023-04-15T10:16:10;12.90;98.10
6520;DHT22;3293;51.690;5.982;2023-04-15T10:21:11;13.00;99.00
6520;DHT22;3293;51.690;5.982;2023-04-15T10:26:13;13.00;99.10
6520;DHT22;3293;51.690;5.982;2023-04-15T10:31:19;13.10;99.90
6520;DHT22;3293;51.690;5.982;2023-04-15T10:36:19;13.40;99.90
6520;DHT22;3293;51.690;5.982;2023-04-15T10:41:26;13.70;98.80
6520;DHT22;3293;51.690;5.982;2023-04-15T10:51:43;14.10;94.50
6520;DHT22;3293;51.690;5.982;2023-04-15T10:56:44;13.80;95.90
6520;DHT22;3293;51.690;5.982;2023-04-15T11:01:55;13.90;95.50
6520;DHT22;3293;51.690;5.982;2023-04-15T11:07:06;14.10;94.50
6520;DHT22;3293;51.690;5.982;2023-04-15T11:12:06;13.90;94.30
6520;DHT22;3293;51.690;5.982;2023-04-15T11:17:08;14.10;95.50
6520;DHT22;3293;51.690;5.982;2023-04-15T11:22:10;14.10;92.30
6520;DHT22;3293;51.690;5.982;2023-04-15T11:27:22;14.20;91.80
6520;DHT22;3293;51.690;5.982;2023-04-15T11:32:22;14.40;93.10
6520;DHT22;3293;51.690;5.982;2023-04-15T11:37:28;14.00;94.20
6520;DHT22;3293;51.690;5.982;2023-04-15T11:42:28;13.80;93.90
6520;DHT22;3293;51.690;5.982;2023-04-15T11:47:28;13.80;95.00
6520;DHT22;3293;51.690;5.982;2023-04-15T11:52:28;14.00;95.80
6520;DHT22;3293;51.690;5.982;2023-04-15T11:57:31;14.30;91.50
6520;DHT22;3293;51.690;5.982;2023-04-15T12:02:31;14.20;93.00
6520;DHT22;3293;51.690;5.982;2023-04-15T12:07:58;14.00;92.90
6520;DHT22;3293;51.690;5.982;2023-04-15T12:12:58;13.90;90.20
6520;DHT22;3293;51.690;5.982;2023-04-15T12:17:58;14.10;91.60
6520;DHT22;3293;51.690;5.982;2023-04-15T12:23:05;14.50;91.20
6520;DHT22;3293;51.690;5.982;2023-04-15T12:28:12;14.50;91.00
6520;DHT22;3293;51.690;5.982;2023-04-15T12:33:12;14.70;88.00
6520;DHT22;3293;51.690;5.982;2023-04-15T12:38:12;14.80;87.90
6520;DHT22;3293;51.690;5.982;2023-04-15T12:43:12;14.70;84.10
6520;DHT22;3293;51.690;5.982;2023-04-15T12:48:13;14.60;88.20
6520;DHT22;3293;51.690;5.982;2023-04-15T12:53:12;14.90;86.60
6520;DHT22;3293;51.690;5.982;2023-04-15T12:58:13;15.00;80.00
6520;DHT22;3293;51.690;5.982;2023-04-15T13:03:13;14.80;85.80
6520;DHT22;3293;51.690;5.982;2023-04-15T13:08:13;15.10;82.50
6520;DHT22;3293;51.690;5.982;2023-04-15T13:13:13;15.40;84.70
6520;DHT22;3293;51.690;5.982;2023-04-15T13:18:13;15.30;82.60
6520;DHT22;3293;51.690;5.982;2023-04-15T13:23:14;15.00;79.70
6520;DHT22;3293;51.690;5.982;2023-04-15T13:28:14;14.50;87.20
6520;DHT22;3293;51.690;5.982;2023-04-15T13:33:16;14.30;87.80
6520;DHT22;3293;51.690;5.982;2023-04-15T13:38:16;14.40;84.10
6520;DHT22;3293;51.690;5.982;2023-04-15T13:43:16;14.70;89.00
6520;DHT22;3293;51.690;5.982;2023-04-15T13:48:16;14.80;83.70
6520;DHT22;3293;51.690;5.982;2023-04-15T13:53:16;14.60;87.30
6520;DHT22;3293;51.690;5.982;2023-04-15T13:58:16;14.40;88.30
6520;DHT22;3293;51.690;5.982;2023-04-15T14:03:16;14.60;82.50
6520;DHT22;3293;51.690;5.982;2023-04-15T14:08:16;14.60;81.10
6520;DHT22;3293;51.690;5.982;2023-04-15T14:13:16;14.60;82.50
6520;DHT22;3293;51.690;5.982;2023-04-15T14:18:18;14.80;81.50
6520;DHT22;3293;51.690;5.982;2023-04-15T14:23:18;14.90;84.10
6520;DHT22;3293;51.690;5.982;2023-04-15T14:28:18;14.90;83.60
6520;DHT22;3293;51.690;5.982;2023-04-15T14:33:18;14.90;83.10
6520;DHT22;3293;51.690;5.982;2023-04-15T14:38:18;14.50;83.80
6520;DHT22;3293;51.690;5.982;2023-04-15T14:43:18;14.10;91.00
6520;DHT22;3293;51.690;5.982;2023-04-15T14:48:18;13.80;91.00
6520;DHT22;3293;51.690;5.982;2023-04-15T14:53:18;13.50;94.00
6520;DHT22;3293;51.690;5.982;2023-04-15T14:58:18;13.10;95.70
6520;DHT22;3293;51.690;5.982;2023-04-15T15:03:18;12.80;96.20
6520;DHT22;3293;51.690;5.982;2023-04-15T15:08:18;12.70;97.40
6520;DHT22;3293;51.690;5.982;2023-04-15T15:13:18;12.80;97.50
6520;DHT22;3293;51.690;5.982;2023-04-15T15:18:18;12.70;97.90
6520;DHT22;3293;51.690;5.982;2023-04-15T15:23:18;12.90;98.90
6520;DHT22;3293;51.690;5.982;2023-04-15T15:28:19;13.10;97.10
6520;DHT22;3293;51.690;5.982;2023-04-15T15:33:20;12.80;99.10
6520;DHT22;3293;51.690;5.982;2023-04-15T15:38:21;12.50;99.90
6520;DHT22;3293;51.690;5.982;2023-04-15T15:43:21;12.30;99.90
6520;DHT22;3293;51.690;5.982;2023-04-15T15:48:22;12.20;99.90
6520;DHT22;3293;51.690;5.982;2023-04-15T15:53:22;12.30;99.90
6520;DHT22;3293;51.690;5.982;2023-04-15T15:58:24;12.10;99.90
6520;DHT22;3293;51.690;5.982;2023-04-15T16:03:24;12.00;99.90
6520;DHT22;3293;51.690;5.982;2023-04-15T16:08:24;11.90;99.90
6520;DHT22;3293;51.690;5.982;2023-04-15T16:13:24;11.70;99.90
6520;DHT22;3293;51.690;5.982;2023-04-15T16:18:24;11.50;99.90
6520;DHT22;3293;51.690;5.982;2023-04-15T16:23:24;11.50;99.90
6520;DHT22;3293;51.690;5.982;2023-04-15T16:28:24;11.60;99.90
6520;DHT22;3293;51.690;5.982;2023-04-15T16:33:24;11.60;99.90
6520;DHT22;3293;51.690;5.982;2023-04-15T16:38:25;11.60;99.90
6520;DHT22;3293;51.690;5.982;2023-04-15T16:43:25;11.50;99.90
6520;DHT22;3293;51.690;5.982;2023-04-15T16:48:25;11.50;99.90
6520;DHT22;3293;51.690;5.982;2023-04-15T16:53:25;11.40;99.90
6520;DHT22;3293;51.690;5.982;2023-04-15T16:58:26;11.30;99.90
6520;DHT22;3293;51.690;5.982;2023-04-15T17:03:27;11.20;99.90
6520;DHT22;3293;51.690;5.982;2023-04-15T17:08:28;11.10;99.90
6520;DHT22;3293;51.690;5.982;2023-04-15T17:13:28;11.10;99.90
6520;DHT22;3293;51.690;5.982;2023-04-15T17:18:29;11.00;99.90
6520;DHT22;3293;51.690;5.982;2023-04-15T17:23:30;10.90;99.90
6520;DHT22;3293;51.690;5.982;2023-04-15T17:28:30;10.70;99.90
6520;DHT22;3293;51.690;5.982;2023-04-15T17:33:32;10.60;99.90
6520;DHT22;3293;51.690;5.982;2023-04-15T17:38:32;10.50;99.90
6520;DHT22;3293;51.690;5.982;2023-04-15T17:43:33;10.30;99.90
6520;DHT22;3293;51.690;5.982;2023-04-15T17:48:34;10.30;99.90
6520;DHT22;3293;51.690;5.982;2023-04-15T17:53:34;10.30;99.90
6520;DHT22;3293;51.690;5.982;2023-04-15T17:58:34;10.30;99.90
6520;DHT22;3293;51.690;5.982;2023-04-15T18:03:34;10.20;99.90
6520;DHT22;3293;51.690;5.982;2023-04-15T18:08:35;10.30;99.90
6520;DHT22;3293;51.690;5.982;2023-04-15T18:13:35;10.10;99.90
6520;DHT22;3293;51.690;5.982;2023-04-15T18:18:34;10.10;99.90
6520;DHT22;3293;51.690;5.982;2023-04-15T18:23:34;10.00;99.90
6520;DHT22;3293;51.690;5.982;2023-04-15T18:28:35;9.90;99.90
6520;DHT22;3293;51.690;5.982;2023-04-15T18:33:36;9.90;99.90
6520;DHT22;3293;51.690;5.982;2023-04-15T18:38:36;9.80;99.90
6520;DHT22;3293;51.690;5.982;2023-04-15T18:43:36;9.80;99.90
6520;DHT22;3293;51.690;5.982;2023-04-15T18:48:36;9.80;99.90
6520;DHT22;3293;51.690;5.982;2023-04-15T18:53:36;9.70;99.90
6520;DHT22;3293;51.690;5.982;2023-04-15T18:58:36;9.80;99.90
6520;DHT22;3293;51.690;5.982;2023-04-15T19:03:36;9.60;99.90
6520;DHT22;3293;51.690;5.982;2023-04-15T19:08:36;9.50;99.90
6520;DHT22;3293;51.690;5.982;2023-04-15T19:13:36;9.40;99.90
6520;DHT22;3293;51.690;5.982;2023-04-15T19:18:36;9.30;99.90
6520;DHT22;3293;51.690;5.982;2023-04-15T19:23:35;9.30;99.90
6520;DHT22;3293;51.690;5.982;2023-04-15T19:28:35;9.10;99.90
6520;DHT22;3293;51.690;5.982;2023-04-15T19:33:36;9.00;99.90
6520;DHT22;3293;51.690;5.982;2023-04-15T19:38:36;9.00;99.90
6520;DHT22;3293;51.690;5.982;2023-04-15T19:43:37;8.90;99.90
6520;DHT22;3293;51.690;5.982;2023-04-15T19:48:37;9.00;99.90
6520;DHT22;3293;51.690;5.982;2023-04-15T19:53:39;9.00;99.90
6520;DHT22;3293;51.690;5.982;2023-04-15T19:58:40;9.10;99.90
6520;DHT22;3293;51.690;5.982;2023-04-15T20:03:40;9.00;99.90
6520;DHT22;3293;51.690;5.982;2023-04-15T20:08:40;9.00;99.90
6520;DHT22;3293;51.690;5.982;2023-04-15T20:13:40;9.00;99.90
6520;DHT22;3293;51.690;5.982;2023-04-15T20:18:40;9.10;99.90
6520;DHT22;3293;51.690;5.982;2023-04-15T20:23:40;9.00;99.90
6520;DHT22;3293;51.690;5.982;2023-04-15T20:28:41;9.00;99.90
6520;DHT22;3293;51.690;5.982;2023-04-15T20:33:41;9.00;99.90
6520;DHT22;3293;51.690;5.982;2023-04-15T20:38:41;9.00;99.90
6520;DHT22;3293;51.690;5.982;2023-04-15T20:43:41;9.00;99.90
6520;DHT22;3293;51.690;5.982;2023-04-15T20:48:41;9.10;99.90
6520;DHT22;3293;51.690;5.982;2023-04-15T20:53:41;9.10;99.90
6520;DHT22;3293;51.690;5.982;2023-04-15T20:58:41;9.10;99.90
6520;DHT22;3293;51.690;5.982;2023-04-15T21:03:41;9.10;99.90
6520;DHT22;3293;51.690;5.982;2023-04-15T21:08:41;9.10;99.90
6520;DHT22;3293;51.690;5.982;2023-04-15T21:13:41;9.10;99.90
6520;DHT22;3293;51.690;5.982;2023-04-15T21:18:41;9.10;99.90
6520;DHT22;3293;51.690;5.982;2023-04-15T21:23:41;9.00;99.90
6520;DHT22;3293;51.690;5.982;2023-04-15T21:28:41;9.00;99.90
6520;DHT22;3293;51.690;5.982;2023-04-15T21:33:41;8.90;99.90
6520;DHT22;3293;51.690;5.982;2023-04-15T21:38:40;8.90;99.90
6520;DHT22;3293;51.690;5.982;2023-04-15T21:43:41;8.80;99.90
6520;DHT22;3293;51.690;5.982;2023-04-15T21:48:40;8.80;99.90
6520;DHT22;3293;51.690;5.982;2023-04-15T21:53:40;8.80;99.90
6520;DHT22;3293;51.690;5.982;2023-04-15T21:58:40;8.80;99.90
6520;DHT22;3293;51.690;5.982;2023-04-15T22:03:40;8.80;99.90
6520;DHT22;3293;51.690;5.982;2023-04-15T22:08:40;8.80;99.90
6520;DHT22;3293;51.690;5.982;2023-04-15T22:13:40;8.80;99.90
6520;DHT22;3293;51.690;5.982;2023-04-15T22:18:40;8.80;99.90
6520;DHT22;3293;51.690;5.982;2023-04-15T22:23:40;8.80;99.90
6520;DHT22;3293;51.690;5.982;2023-04-15T22:28:40;8.80;99.90
6520;DHT22;3293;51.690;5.982;2023-04-15T22:33:40;8.90;99.90
6520;DHT22;3293;51.690;5.982;2023-04-15T22:38:40;8.80;99.90
6520;DHT22;3293;51.690;5.982;2023-04-15T22:43:40;8.80;99.90
6520;DHT22;3293;51.690;5.982;2023-04-15T22:48:40;8.80;99.90
6520;DHT22;3293;51.690;5.982;2023-04-15T22:53:42;8.80;99.90
6520;DHT22;3293;51.690;5.982;2023-04-15T22:58:42;8.80;99.90
6520;DHT22;3293;51.690;5.982;2023-04-15T23:03:43;8.70;99.90
6520;DHT22;3293;51.690;5.982;2023-04-15T23:08:43;8.70;99.90
6520;DHT22;3293;51.690;5.982;2023-04-15T23:13:46;8.70;99.90
6520;DHT22;3293;51.690;5.982;2023-04-15T23:18:46;8.80;99.90
6520;DHT22;3293;51.690;5.982;2023-04-15T23:23:46;8.80;99.90
6520;DHT22;3293;51.690;5.982;2023-04-15T23:28:46;8.80;99.90
6520;DHT22;3293;51.690;5.982;2023-04-15T23:33:46;8.80;99.90
6520;DHT22;3293;51.690;5.982;2023-04-15T23:38:46;8.80;99.90
6520;DHT22;3293;51.690;5.982;2023-04-15T23:43:46;8.80;99.90
6520;DHT22;3293;51.690;5.982;2023-04-15T23:48:46;8.80;99.90
6520;DHT22;3293;51.690;5.982;2023-04-15T23:53:48;8.90;99.90
6520;DHT22;3293;51.690;5.982;2023-04-15T23:58:48;8.80;99.90
